Terminal Aerodrome Forecast
Issued by NWS Missoula, MT

Home | Current Version | Previous Version | Text Only | Print | Product List | Glossary On
Versions: 1 2 3 4 5 6 7 8 9 10 11 12 13
000
FTUS45 KMSO 231700
TAFMSO
TAF
KMSO 231725Z 2318/2418 17009KT P6SM VCSH BKN050
     FM231900 27018G28KT P6SM VCSH BKN060
     FM240200 28010KT P6SM BKN070=

USA.gov is the U.S. government's official web portal to all federal, state and local government web resources and services.